sensor_id;sensor_type;location;lat;lon;timestamp;P1;durP1;ratioP1;P2;durP2;ratioP2
45676;SDS011;31390;51.186;6.830;2023-04-15T00:00:56;8.73;;;7.57;;
45676;SDS011;31390;51.186;6.830;2023-04-15T00:03:30;9.28;;;7.23;;
45676;SDS011;31390;51.186;6.830;2023-04-15T00:05:57;11.73;;;7.10;;
45676;SDS011;31390;51.186;6.830;2023-04-15T00:08:23;9.87;;;8.53;;
45676;SDS011;31390;51.186;6.830;2023-04-15T00:10:50;9.20;;;7.50;;
45676;SDS011;31390;51.186;6.830;2023-04-15T00:13:17;10.80;;;8.07;;
45676;SDS011;31390;51.186;6.830;2023-04-15T00:15:43;10.10;;;8.20;;
45676;SDS011;31390;51.186;6.830;2023-04-15T00:18:10;8.57;;;7.77;;
45676;SDS011;31390;51.186;6.830;2023-04-15T00:20:36;8.83;;;7.93;;
45676;SDS011;31390;51.186;6.830;2023-04-15T00:23:03;9.10;;;8.00;;
45676;SDS011;31390;51.186;6.830;2023-04-15T00:25:30;10.83;;;8.13;;
45676;SDS011;31390;51.186;6.830;2023-04-15T00:27:57;9.27;;;8.20;;
45676;SDS011;31390;51.186;6.830;2023-04-15T00:30:24;12.13;;;9.07;;
45676;SDS011;31390;51.186;6.830;2023-04-15T00:32:51;9.70;;;8.67;;
45676;SDS011;31390;51.186;6.830;2023-04-15T00:35:19;9.93;;;8.00;;
45676;SDS011;31390;51.186;6.830;2023-04-15T00:37:49;10.00;;;8.50;;
45676;SDS011;31390;51.186;6.830;2023-04-15T00:40:16;9.50;;;8.43;;
45676;SDS011;31390;51.186;6.830;2023-04-15T00:42:44;8.83;;;8.00;;
45676;SDS011;31390;51.186;6.830;2023-04-15T00:45:10;9.07;;;8.17;;
45676;SDS011;31390;51.186;6.830;2023-04-15T00:47:37;9.70;;;8.80;;
45676;SDS011;31390;51.186;6.830;2023-04-15T00:50:04;15.03;;;9.90;;
45676;SDS011;31390;51.186;6.830;2023-04-15T00:52:31;11.47;;;9.37;;
45676;SDS011;31390;51.186;6.830;2023-04-15T00:54:58;10.30;;;9.13;;
45676;SDS011;31390;51.186;6.830;2023-04-15T00:57:24;11.30;;;10.00;;
45676;SDS011;31390;51.186;6.830;2023-04-15T00:59:52;9.83;;;8.83;;
45676;SDS011;31390;51.186;6.830;2023-04-15T01:02:20;12.37;;;9.07;;
45676;SDS011;31390;51.186;6.830;2023-04-15T01:04:48;12.67;;;9.80;;
45676;SDS011;31390;51.186;6.830;2023-04-15T01:07:15;10.53;;;9.47;;
45676;SDS011;31390;51.186;6.830;2023-04-15T01:09:41;14.13;;;10.10;;
45676;SDS011;31390;51.186;6.830;2023-04-15T01:12:09;11.70;;;9.27;;
45676;SDS011;31390;51.186;6.830;2023-04-15T01:14:37;11.33;;;10.00;;
45676;SDS011;31390;51.186;6.830;2023-04-15T01:17:03;13.73;;;10.97;;
45676;SDS011;31390;51.186;6.830;2023-04-15T01:19:31;12.23;;;9.80;;
45676;SDS011;31390;51.186;6.830;2023-04-15T01:21:58;11.00;;;9.67;;
45676;SDS011;31390;51.186;6.830;2023-04-15T01:24:25;10.90;;;9.80;;
45676;SDS011;31390;51.186;6.830;2023-04-15T01:26:53;11.37;;;10.17;;
45676;SDS011;31390;51.186;6.830;2023-04-15T01:29:19;14.33;;;11.33;;
45676;SDS011;31390;51.186;6.830;2023-04-15T01:31:50;11.43;;;10.30;;
45676;SDS011;31390;51.186;6.830;2023-04-15T01:34:17;11.53;;;10.03;;
45676;SDS011;31390;51.186;6.830;2023-04-15T01:36:44;13.10;;;10.23;;
45676;SDS011;31390;51.186;6.830;2023-04-15T01:39:12;12.10;;;10.73;;
45676;SDS011;31390;51.186;6.830;2023-04-15T01:41:39;12.23;;;10.33;;
45676;SDS011;31390;51.186;6.830;2023-04-15T01:44:07;13.70;;;10.33;;
45676;SDS011;31390;51.186;6.830;2023-04-15T01:46:34;10.80;;;9.70;;
45676;SDS011;31390;51.186;6.830;2023-04-15T01:49:01;11.73;;;10.13;;
45676;SDS011;31390;51.186;6.830;2023-04-15T01:51:27;11.83;;;10.43;;
45676;SDS011;31390;51.186;6.830;2023-04-15T01:53:54;11.43;;;10.23;;
45676;SDS011;31390;51.186;6.830;2023-04-15T01:56:22;11.37;;;10.10;;
45676;SDS011;31390;51.186;6.830;2023-04-15T01:58:52;12.40;;;10.53;;
45676;SDS011;31390;51.186;6.830;2023-04-15T02:01:19;11.40;;;10.20;;
45676;SDS011;31390;51.186;6.830;2023-04-15T02:03:46;10.27;;;9.33;;
45676;SDS011;31390;51.186;6.830;2023-04-15T02:06:14;12.00;;;10.57;;
45676;SDS011;31390;51.186;6.830;2023-04-15T02:08:40;12.93;;;10.47;;
45676;SDS011;31390;51.186;6.830;2023-04-15T02:11:07;12.03;;;10.73;;
45676;SDS011;31390;51.186;6.830;2023-04-15T02:13:33;13.17;;;10.93;;
45676;SDS011;31390;51.186;6.830;2023-04-15T02:16:00;13.43;;;10.50;;
45676;SDS011;31390;51.186;6.830;2023-04-15T02:18:26;14.03;;;11.77;;
45676;SDS011;31390;51.186;6.830;2023-04-15T02:20:53;13.00;;;11.33;;
45676;SDS011;31390;51.186;6.830;2023-04-15T02:23:19;15.77;;;11.00;;
45676;SDS011;31390;51.186;6.830;2023-04-15T02:25:46;12.87;;;10.27;;
45676;SDS011;31390;51.186;6.830;2023-04-15T02:28:19;11.83;;;10.70;;
45676;SDS011;31390;51.186;6.830;2023-04-15T02:30:49;12.00;;;10.80;;
45676;SDS011;31390;51.186;6.830;2023-04-15T02:33:20;13.23;;;11.90;;
45676;SDS011;31390;51.186;6.830;2023-04-15T02:35:46;14.83;;;12.23;;
45676;SDS011;31390;51.186;6.830;2023-04-15T02:38:13;13.23;;;11.73;;
45676;SDS011;31390;51.186;6.830;2023-04-15T02:40:42;13.87;;;12.27;;
45676;SDS011;31390;51.186;6.830;2023-04-15T02:43:08;12.17;;;10.53;;
45676;SDS011;31390;51.186;6.830;2023-04-15T02:45:35;14.83;;;12.60;;
45676;SDS011;31390;51.186;6.830;2023-04-15T02:48:03;12.03;;;10.93;;
45676;SDS011;31390;51.186;6.830;2023-04-15T02:50:32;13.13;;;11.83;;
45676;SDS011;31390;51.186;6.830;2023-04-15T02:52:58;12.90;;;11.50;;
45676;SDS011;31390;51.186;6.830;2023-04-15T02:55:27;14.37;;;12.87;;
45676;SDS011;31390;51.186;6.830;2023-04-15T02:57:54;14.10;;;12.70;;
45676;SDS011;31390;51.186;6.830;2023-04-15T03:00:21;12.67;;;11.37;;
45676;SDS011;31390;51.186;6.830;2023-04-15T03:02:47;18.57;;;12.87;;
45676;SDS011;31390;51.186;6.830;2023-04-15T03:05:18;14.37;;;12.17;;
45676;SDS011;31390;51.186;6.830;2023-04-15T03:07:48;12.20;;;11.00;;
45676;SDS011;31390;51.186;6.830;2023-04-15T03:10:14;13.70;;;12.37;;
45676;SDS011;31390;51.186;6.830;2023-04-15T03:12:41;12.33;;;11.17;;
45676;SDS011;31390;51.186;6.830;2023-04-15T03:15:11;13.20;;;11.67;;
45676;SDS011;31390;51.186;6.830;2023-04-15T03:17:42;13.57;;;11.93;;
45676;SDS011;31390;51.186;6.830;2023-04-15T03:20:09;14.63;;;12.77;;
45676;SDS011;31390;51.186;6.830;2023-04-15T03:22:36;15.23;;;13.63;;
45676;SDS011;31390;51.186;6.830;2023-04-15T03:25:03;16.07;;;13.87;;
45676;SDS011;31390;51.186;6.830;2023-04-15T03:27:31;15.23;;;13.33;;
45676;SDS011;31390;51.186;6.830;2023-04-15T03:29:59;15.17;;;13.67;;
45676;SDS011;31390;51.186;6.830;2023-04-15T03:32:29;16.83;;;15.07;;
45676;SDS011;31390;51.186;6.830;2023-04-15T03:34:56;15.53;;;13.67;;
45676;SDS011;31390;51.186;6.830;2023-04-15T03:37:22;15.30;;;13.77;;
45676;SDS011;31390;51.186;6.830;2023-04-15T03:39:48;17.93;;;14.47;;
45676;SDS011;31390;51.186;6.830;2023-04-15T03:42:15;15.97;;;14.33;;
45676;SDS011;31390;51.186;6.830;2023-04-15T03:44:41;14.83;;;13.40;;
45676;SDS011;31390;51.186;6.830;2023-04-15T03:47:08;16.10;;;14.40;;
45676;SDS011;31390;51.186;6.830;2023-04-15T03:49:35;17.23;;;15.40;;
45676;SDS011;31390;51.186;6.830;2023-04-15T03:52:01;16.07;;;14.37;;
45676;SDS011;31390;51.186;6.830;2023-04-15T03:54:28;14.80;;;13.37;;
45676;SDS011;31390;51.186;6.830;2023-04-15T03:56:54;16.47;;;14.80;;
45676;SDS011;31390;51.186;6.830;2023-04-15T03:59:22;15.97;;;14.37;;
45676;SDS011;31390;51.186;6.830;2023-04-15T04:01:48;15.70;;;14.10;;
45676;SDS011;31390;51.186;6.830;2023-04-15T04:04:15;16.73;;;15.03;;
45676;SDS011;31390;51.186;6.830;2023-04-15T04:06:41;18.60;;;15.53;;
45676;SDS011;31390;51.186;6.830;2023-04-15T04:09:08;17.63;;;14.57;;
45676;SDS011;31390;51.186;6.830;2023-04-15T04:11:34;16.10;;;14.47;;
45676;SDS011;31390;51.186;6.830;2023-04-15T04:14:01;15.33;;;13.73;;
45676;SDS011;31390;51.186;6.830;2023-04-15T04:16:28;16.73;;;15.03;;
45676;SDS011;31390;51.186;6.830;2023-04-15T04:18:54;16.90;;;15.13;;
45676;SDS011;31390;51.186;6.830;2023-04-15T04:21:21;17.17;;;15.50;;
45676;SDS011;31390;51.186;6.830;2023-04-15T04:23:48;18.07;;;16.10;;
45676;SDS011;31390;51.186;6.830;2023-04-15T04:26:14;16.50;;;14.97;;
45676;SDS011;31390;51.186;6.830;2023-04-15T04:28:41;17.60;;;15.80;;
45676;SDS011;31390;51.186;6.830;2023-04-15T04:31:07;21.13;;;17.17;;
45676;SDS011;31390;51.186;6.830;2023-04-15T04:33:34;20.10;;;16.80;;
45676;SDS011;31390;51.186;6.830;2023-04-15T04:36:01;19.83;;;17.80;;
45676;SDS011;31390;51.186;6.830;2023-04-15T04:38:27;22.27;;;18.40;;
45676;SDS011;31390;51.186;6.830;2023-04-15T04:40:53;19.80;;;17.73;;
45676;SDS011;31390;51.186;6.830;2023-04-15T04:43:20;20.60;;;18.40;;
45676;SDS011;31390;51.186;6.830;2023-04-15T04:45:47;19.53;;;17.27;;
45676;SDS011;31390;51.186;6.830;2023-04-15T04:48:14;19.10;;;17.20;;
45676;SDS011;31390;51.186;6.830;2023-04-15T04:50:40;23.47;;;18.73;;
45676;SDS011;31390;51.186;6.830;2023-04-15T04:53:07;20.53;;;18.27;;
45676;SDS011;31390;51.186;6.830;2023-04-15T04:55:34;22.10;;;17.43;;
45676;SDS011;31390;51.186;6.830;2023-04-15T04:58:02;22.33;;;19.87;;
45676;SDS011;31390;51.186;6.830;2023-04-15T05:00:28;21.17;;;18.97;;
45676;SDS011;31390;51.186;6.830;2023-04-15T05:02:55;19.53;;;17.43;;
45676;SDS011;31390;51.186;6.830;2023-04-15T05:05:22;23.70;;;19.70;;
45676;SDS011;31390;51.186;6.830;2023-04-15T05:07:48;18.67;;;16.67;;
45676;SDS011;31390;51.186;6.830;2023-04-15T05:10:15;24.07;;;19.60;;
45676;SDS011;31390;51.186;6.830;2023-04-15T05:12:43;21.37;;;18.47;;
45676;SDS011;31390;51.186;6.830;2023-04-15T05:15:10;21.13;;;18.80;;
45676;SDS011;31390;51.186;6.830;2023-04-15T05:17:36;22.00;;;19.70;;
45676;SDS011;31390;51.186;6.830;2023-04-15T05:20:03;21.80;;;19.43;;
45676;SDS011;31390;51.186;6.830;2023-04-15T05:22:29;22.30;;;19.87;;
45676;SDS011;31390;51.186;6.830;2023-04-15T05:24:56;22.77;;;20.33;;
45676;SDS011;31390;51.186;6.830;2023-04-15T05:27:22;27.00;;;22.03;;
45676;SDS011;31390;51.186;6.830;2023-04-15T05:29:49;26.93;;;22.60;;
45676;SDS011;31390;51.186;6.830;2023-04-15T05:32:16;22.10;;;19.53;;
45676;SDS011;31390;51.186;6.830;2023-04-15T05:34:43;23.73;;;20.53;;
45676;SDS011;31390;51.186;6.830;2023-04-15T05:37:09;23.23;;;20.83;;
45676;SDS011;31390;51.186;6.830;2023-04-15T05:39:36;25.00;;;22.23;;
45676;SDS011;31390;51.186;6.830;2023-04-15T05:42:02;24.63;;;21.80;;
45676;SDS011;31390;51.186;6.830;2023-04-15T05:44:31;26.40;;;23.50;;
45676;SDS011;31390;51.186;6.830;2023-04-15T05:46:58;26.27;;;23.43;;
45676;SDS011;31390;51.186;6.830;2023-04-15T05:49:24;27.47;;;23.70;;
45676;SDS011;31390;51.186;6.830;2023-04-15T05:51:51;29.30;;;25.57;;
45676;SDS011;31390;51.186;6.830;2023-04-15T05:54:17;33.37;;;26.10;;
45676;SDS011;31390;51.186;6.830;2023-04-15T05:56:45;29.27;;;26.10;;
45676;SDS011;31390;51.186;6.830;2023-04-15T05:59:12;31.60;;;26.47;;
45676;SDS011;31390;51.186;6.830;2023-04-15T06:01:38;31.20;;;27.70;;
45676;SDS011;31390;51.186;6.830;2023-04-15T06:04:05;32.33;;;26.87;;
45676;SDS011;31390;51.186;6.830;2023-04-15T06:06:32;31.60;;;28.20;;
45676;SDS011;31390;51.186;6.830;2023-04-15T06:08:58;34.03;;;29.07;;
45676;SDS011;31390;51.186;6.830;2023-04-15T06:11:25;31.67;;;28.33;;
45676;SDS011;31390;51.186;6.830;2023-04-15T06:13:52;27.07;;;24.40;;
45676;SDS011;31390;51.186;6.830;2023-04-15T06:16:19;24.53;;;21.93;;
45676;SDS011;31390;51.186;6.830;2023-04-15T06:18:45;26.57;;;22.47;;
45676;SDS011;31390;51.186;6.830;2023-04-15T06:21:12;20.90;;;18.57;;
45676;SDS011;31390;51.186;6.830;2023-04-15T06:23:39;21.77;;;19.57;;
45676;SDS011;31390;51.186;6.830;2023-04-15T06:26:06;23.30;;;20.57;;
45676;SDS011;31390;51.186;6.830;2023-04-15T06:28:33;21.00;;;18.97;;
45676;SDS011;31390;51.186;6.830;2023-04-15T06:30:59;17.57;;;15.43;;
45676;SDS011;31390;51.186;6.830;2023-04-15T06:33:27;17.93;;;16.10;;
45676;SDS011;31390;51.186;6.830;2023-04-15T06:35:53;16.40;;;14.80;;
45676;SDS011;31390;51.186;6.830;2023-04-15T06:38:20;15.73;;;13.93;;
45676;SDS011;31390;51.186;6.830;2023-04-15T06:40:46;17.23;;;15.05;;
45676;SDS011;31390;51.186;6.830;2023-04-15T06:43:13;14.63;;;13.23;;
45676;SDS011;31390;51.186;6.830;2023-04-15T06:45:40;14.38;;;13.00;;
45676;SDS011;31390;51.186;6.830;2023-04-15T06:48:07;15.60;;;14.07;;
45676;SDS011;31390;51.186;6.830;2023-04-15T06:50:33;13.30;;;11.95;;
45676;SDS011;31390;51.186;6.830;2023-04-15T06:53:01;14.60;;;12.73;;
45676;SDS011;31390;51.186;6.830;2023-04-15T06:55:28;14.57;;;13.18;;
45676;SDS011;31390;51.186;6.830;2023-04-15T06:57:55;13.85;;;12.45;;
45676;SDS011;31390;51.186;6.830;2023-04-15T07:00:21;11.57;;;10.57;;
45676;SDS011;31390;51.186;6.830;2023-04-15T07:02:48;12.43;;;11.20;;
45676;SDS011;31390;51.186;6.830;2023-04-15T07:05:14;11.70;;;10.60;;
45676;SDS011;31390;51.186;6.830;2023-04-15T07:07:41;10.82;;;9.38;;
45676;SDS011;31390;51.186;6.830;2023-04-15T07:10:08;11.70;;;10.48;;
45676;SDS011;31390;51.186;6.830;2023-04-15T07:12:35;10.27;;;9.27;;
45676;SDS011;31390;51.186;6.830;2023-04-15T07:15:01;11.38;;;9.00;;
45676;SDS011;31390;51.186;6.830;2023-04-15T07:17:28;8.13;;;7.32;;
45676;SDS011;31390;51.186;6.830;2023-04-15T07:19:55;6.95;;;6.28;;
45676;SDS011;31390;51.186;6.830;2023-04-15T07:22:21;6.95;;;6.35;;
45676;SDS011;31390;51.186;6.830;2023-04-15T07:24:48;8.35;;;6.00;;
45676;SDS011;31390;51.186;6.830;2023-04-15T07:27:14;8.55;;;6.57;;
45676;SDS011;31390;51.186;6.830;2023-04-15T07:29:41;6.22;;;5.63;;
45676;SDS011;31390;51.186;6.830;2023-04-15T07:32:08;6.00;;;5.50;;
45676;SDS011;31390;51.186;6.830;2023-04-15T07:34:36;6.82;;;4.65;;
45676;SDS011;31390;51.186;6.830;2023-04-15T07:37:03;6.43;;;4.90;;
45676;SDS011;31390;51.186;6.830;2023-04-15T07:39:29;7.35;;;4.80;;
45676;SDS011;31390;51.186;6.830;2023-04-15T07:41:56;6.53;;;5.57;;
45676;SDS011;31390;51.186;6.830;2023-04-15T07:44:25;6.55;;;5.95;;
45676;SDS011;31390;51.186;6.830;2023-04-15T07:46:52;7.95;;;5.50;;
45676;SDS011;31390;51.186;6.830;2023-04-15T07:49:18;7.25;;;6.20;;
45676;SDS011;31390;51.186;6.830;2023-04-15T07:51:46;6.72;;;5.88;;
45676;SDS011;31390;51.186;6.830;2023-04-15T07:54:14;6.20;;;5.60;;
45676;SDS011;31390;51.186;6.830;2023-04-15T07:56:40;6.07;;;5.47;;
45676;SDS011;31390;51.186;6.830;2023-04-15T07:59:07;5.40;;;4.75;;
45676;SDS011;31390;51.186;6.830;2023-04-15T08:01:35;6.05;;;5.07;;
45676;SDS011;31390;51.186;6.830;2023-04-15T08:04:02;5.32;;;4.70;;
45676;SDS011;31390;51.186;6.830;2023-04-15T08:06:29;4.78;;;4.38;;
45676;SDS011;31390;51.186;6.830;2023-04-15T08:08:56;4.70;;;4.30;;
45676;SDS011;31390;51.186;6.830;2023-04-15T08:11:22;5.00;;;4.30;;
45676;SDS011;31390;51.186;6.830;2023-04-15T08:13:49;4.57;;;3.80;;
45676;SDS011;31390;51.186;6.830;2023-04-15T08:18:45;4.18;;;3.30;;
45676;SDS011;31390;51.186;6.830;2023-04-15T08:21:11;5.45;;;3.63;;
45676;SDS011;31390;51.186;6.830;2023-04-15T08:23:38;3.63;;;3.33;;
45676;SDS011;31390;51.186;6.830;2023-04-15T08:26:05;5.53;;;4.07;;
45676;SDS011;31390;51.186;6.830;2023-04-15T08:28:31;3.72;;;3.42;;
45676;SDS011;31390;51.186;6.830;2023-04-15T08:30:58;5.72;;;3.10;;
45676;SDS011;31390;51.186;6.830;2023-04-15T08:33:24;4.40;;;3.83;;
45676;SDS011;31390;51.186;6.830;2023-04-15T08:35:51;4.60;;;4.20;;
45676;SDS011;31390;51.186;6.830;2023-04-15T08:38:18;4.50;;;4.10;;
45676;SDS011;31390;51.186;6.830;2023-04-15T08:40:44;4.53;;;3.90;;
45676;SDS011;31390;51.186;6.830;2023-04-15T08:43:17;6.30;;;5.18;;
45676;SDS011;31390;51.186;6.830;2023-04-15T08:45:44;5.07;;;4.55;;
45676;SDS011;31390;51.186;6.830;2023-04-15T08:48:12;5.32;;;4.53;;
45676;SDS011;31390;51.186;6.830;2023-04-15T08:50:43;5.75;;;5.22;;
45676;SDS011;31390;51.186;6.830;2023-04-15T08:53:10;10.30;;;5.25;;
45676;SDS011;31390;51.186;6.830;2023-04-15T08:55:38;5.65;;;5.15;;
45676;SDS011;31390;51.186;6.830;2023-04-15T08:58:07;5.88;;;5.32;;
45676;SDS011;31390;51.186;6.830;2023-04-15T09:00:34;5.88;;;5.38;;
45676;SDS011;31390;51.186;6.830;2023-04-15T09:03:01;6.93;;;5.38;;
45676;SDS011;31390;51.186;6.830;2023-04-15T09:05:30;5.55;;;5.13;;
45676;SDS011;31390;51.186;6.830;2023-04-15T09:07:57;6.38;;;5.78;;
45676;SDS011;31390;51.186;6.830;2023-04-15T09:10:23;7.10;;;5.50;;
45676;SDS011;31390;51.186;6.830;2023-04-15T09:12:50;5.90;;;5.28;;
45676;SDS011;31390;51.186;6.830;2023-04-15T09:15:17;5.38;;;4.88;;
45676;SDS011;31390;51.186;6.830;2023-04-15T09:17:44;5.03;;;4.60;;
45676;SDS011;31390;51.186;6.830;2023-04-15T09:20:11;4.45;;;4.05;;
45676;SDS011;31390;51.186;6.830;2023-04-15T09:22:39;4.90;;;4.30;;
45676;SDS011;31390;51.186;6.830;2023-04-15T09:25:24;4.85;;;4.35;;
45676;SDS011;31390;51.186;6.830;2023-04-15T09:27:55;4.80;;;4.20;;
45676;SDS011;31390;51.186;6.830;2023-04-15T09:30:22;6.22;;;5.03;;
45676;SDS011;31390;51.186;6.830;2023-04-15T09:32:56;4.72;;;4.32;;
45676;SDS011;31390;51.186;6.830;2023-04-15T09:35:23;4.70;;;4.30;;
45676;SDS011;31390;51.186;6.830;2023-04-15T09:37:50;4.95;;;4.45;;
45676;SDS011;31390;51.186;6.830;2023-04-15T09:40:30;4.80;;;4.32;;
45676;SDS011;31390;51.186;6.830;2023-04-15T09:42:58;6.43;;;4.65;;
45676;SDS011;31390;51.186;6.830;2023-04-15T09:45:24;4.60;;;4.20;;
45676;SDS011;31390;51.186;6.830;2023-04-15T09:47:55;4.88;;;4.05;;
45676;SDS011;31390;51.186;6.830;2023-04-15T09:50:27;5.03;;;4.53;;
45676;SDS011;31390;51.186;6.830;2023-04-15T09:52:56;3.63;;;3.33;;
45676;SDS011;31390;51.186;6.830;2023-04-15T09:55:24;2.45;;;2.25;;
45676;SDS011;31390;51.186;6.830;2023-04-15T09:57:51;2.30;;;2.10;;
45676;SDS011;31390;51.186;6.830;2023-04-15T10:00:18;2.55;;;2.35;;
45676;SDS011;31390;51.186;6.830;2023-04-15T10:02:44;2.80;;;2.20;;
45676;SDS011;31390;51.186;6.830;2023-04-15T10:05:13;2.85;;;2.47;;
45676;SDS011;31390;51.186;6.830;2023-04-15T10:07:40;3.20;;;2.90;;
45676;SDS011;31390;51.186;6.830;2023-04-15T10:10:08;2.90;;;2.70;;
45676;SDS011;31390;51.186;6.830;2023-04-15T10:12:36;3.03;;;2.70;;
45676;SDS011;31390;51.186;6.830;2023-04-15T10:15:03;2.97;;;2.72;;
45676;SDS011;31390;51.186;6.830;2023-04-15T10:17:31;3.70;;;2.92;;
45676;SDS011;31390;51.186;6.830;2023-04-15T10:20:02;3.50;;;3.20;;
45676;SDS011;31390;51.186;6.830;2023-04-15T10:22:30;4.25;;;3.50;;
45676;SDS011;31390;51.186;6.830;2023-04-15T10:24:58;4.45;;;4.05;;
45676;SDS011;31390;51.186;6.830;2023-04-15T10:27:26;4.43;;;4.03;;
45676;SDS011;31390;51.186;6.830;2023-04-15T10:29:53;4.43;;;4.13;;
45676;SDS011;31390;51.186;6.830;2023-04-15T10:32:20;6.03;;;4.20;;
45676;SDS011;31390;51.186;6.830;2023-04-15T10:34:47;4.47;;;4.18;;
45676;SDS011;31390;51.186;6.830;2023-04-15T10:37:19;5.00;;;4.60;;
45676;SDS011;31390;51.186;6.830;2023-04-15T10:39:45;5.43;;;5.03;;
45676;SDS011;31390;51.186;6.830;2023-04-15T10:42:13;5.18;;;4.80;;
45676;SDS011;31390;51.186;6.830;2023-04-15T10:44:41;5.38;;;4.97;;
45676;SDS011;31390;51.186;6.830;2023-04-15T10:47:12;4.90;;;4.50;;
45676;SDS011;31390;51.186;6.830;2023-04-15T10:49:58;5.53;;;5.13;;
45676;SDS011;31390;51.186;6.830;2023-04-15T10:52:25;5.75;;;5.18;;
45676;SDS011;31390;51.186;6.830;2023-04-15T10:55:02;5.60;;;5.20;;
45676;SDS011;31390;51.186;6.830;2023-04-15T10:57:33;5.40;;;4.90;;
45676;SDS011;31390;51.186;6.830;2023-04-15T11:00:01;5.78;;;4.95;;
45676;SDS011;31390;51.186;6.830;2023-04-15T11:05:08;4.30;;;4.00;;
45676;SDS011;31390;51.186;6.830;2023-04-15T11:12:47;3.90;;;3.60;;
45676;SDS011;31390;51.186;6.830;2023-04-15T11:15:36;3.70;;;3.50;;
45676;SDS011;31390;51.186;6.830;2023-04-15T11:20:37;4.43;;;4.13;;
45676;SDS011;31390;51.186;6.830;2023-04-15T11:23:04;4.00;;;3.70;;
45676;SDS011;31390;51.186;6.830;2023-04-15T11:25:41;4.20;;;3.80;;
45676;SDS011;31390;51.186;6.830;2023-04-15T11:28:08;4.00;;;3.70;;
45676;SDS011;31390;51.186;6.830;2023-04-15T11:30:36;4.53;;;4.22;;
45676;SDS011;31390;51.186;6.830;2023-04-15T11:33:06;3.83;;;3.53;;
45676;SDS011;31390;51.186;6.830;2023-04-15T11:35:42;4.00;;;3.70;;
45676;SDS011;31390;51.186;6.830;2023-04-15T11:38:12;3.45;;;3.05;;
45676;SDS011;31390;51.186;6.830;2023-04-15T11:40:40;12.35;;;3.60;;
45676;SDS011;31390;51.186;6.830;2023-04-15T11:43:08;3.30;;;3.05;;
45676;SDS011;31390;51.186;6.830;2023-04-15T11:45:35;2.70;;;2.50;;
45676;SDS011;31390;51.186;6.830;2023-04-15T11:48:10;3.58;;;3.28;;
45676;SDS011;31390;51.186;6.830;2023-04-15T11:50:37;3.85;;;3.55;;
45676;SDS011;31390;51.186;6.830;2023-04-15T11:53:06;3.88;;;3.58;;
45676;SDS011;31390;51.186;6.830;2023-04-15T11:55:46;3.78;;;3.47;;
45676;SDS011;31390;51.186;6.830;2023-04-15T11:58:14;4.05;;;3.65;;
45676;SDS011;31390;51.186;6.830;2023-04-15T12:00:56;4.20;;;3.80;;
45676;SDS011;31390;51.186;6.830;2023-04-15T12:08:54;4.25;;;3.40;;
45676;SDS011;31390;51.186;6.830;2023-04-15T12:11:32;4.03;;;3.63;;
45676;SDS011;31390;51.186;6.830;2023-04-15T12:14:09;4.07;;;3.78;;
45676;SDS011;31390;51.186;6.830;2023-04-15T12:16:37;3.90;;;3.38;;
45676;SDS011;31390;51.186;6.830;2023-04-15T12:19:24;3.55;;;3.25;;
45676;SDS011;31390;51.186;6.830;2023-04-15T12:21:52;3.40;;;3.13;;
45676;SDS011;31390;51.186;6.830;2023-04-15T12:24:19;3.88;;;3.58;;
45676;SDS011;31390;51.186;6.830;2023-04-15T12:26:52;3.80;;;3.50;;
45676;SDS011;31390;51.186;6.830;2023-04-15T12:29:19;3.78;;;3.38;;
45676;SDS011;31390;51.186;6.830;2023-04-15T12:31:56;3.30;;;3.00;;
45676;SDS011;31390;51.186;6.830;2023-04-15T12:34:27;3.40;;;2.67;;
45676;SDS011;31390;51.186;6.830;2023-04-15T12:36:53;3.15;;;2.85;;
45676;SDS011;31390;51.186;6.830;2023-04-15T12:39:21;3.03;;;2.83;;
45676;SDS011;31390;51.186;6.830;2023-04-15T12:41:47;3.58;;;3.08;;
45676;SDS011;31390;51.186;6.830;2023-04-15T12:44:14;3.28;;;3.08;;
45676;SDS011;31390;51.186;6.830;2023-04-15T12:46:40;2.97;;;2.78;;
45676;SDS011;31390;51.186;6.830;2023-04-15T12:49:07;3.35;;;3.05;;
45676;SDS011;31390;51.186;6.830;2023-04-15T12:51:34;2.90;;;2.70;;
45676;SDS011;31390;51.186;6.830;2023-04-15T12:54:01;3.22;;;2.92;;
45676;SDS011;31390;51.186;6.830;2023-04-15T12:56:28;2.85;;;2.65;;
45676;SDS011;31390;51.186;6.830;2023-04-15T12:58:55;3.67;;;3.38;;
45676;SDS011;31390;51.186;6.830;2023-04-15T13:01:21;3.08;;;2.85;;
45676;SDS011;31390;51.186;6.830;2023-04-15T13:03:48;4.22;;;3.92;;
45676;SDS011;31390;51.186;6.830;2023-04-15T13:06:16;5.72;;;5.25;;
45676;SDS011;31390;51.186;6.830;2023-04-15T13:08:43;6.38;;;5.78;;
45676;SDS011;31390;51.186;6.830;2023-04-15T13:11:23;5.95;;;5.45;;
45676;SDS011;31390;51.186;6.830;2023-04-15T13:13:50;5.70;;;5.20;;
45676;SDS011;31390;51.186;6.830;2023-04-15T13:16:18;5.80;;;4.72;;
45676;SDS011;31390;51.186;6.830;2023-04-15T13:18:44;6.25;;;5.10;;
45676;SDS011;31390;51.186;6.830;2023-04-15T13:21:11;5.15;;;4.65;;
45676;SDS011;31390;51.186;6.830;2023-04-15T13:23:39;5.53;;;5.00;;
45676;SDS011;31390;51.186;6.830;2023-04-15T13:26:06;6.05;;;4.85;;
45676;SDS011;31390;51.186;6.830;2023-04-15T13:28:33;6.97;;;4.97;;
45676;SDS011;31390;51.186;6.830;2023-04-15T13:31:00;6.20;;;5.63;;
45676;SDS011;31390;51.186;6.830;2023-04-15T13:33:27;5.88;;;5.30;;
45676;SDS011;31390;51.186;6.830;2023-04-15T13:35:53;6.80;;;5.90;;
45676;SDS011;31390;51.186;6.830;2023-04-15T13:38:20;6.10;;;5.60;;
45676;SDS011;31390;51.186;6.830;2023-04-15T13:40:46;5.97;;;5.38;;
45676;SDS011;31390;51.186;6.830;2023-04-15T13:43:13;4.22;;;3.85;;
45676;SDS011;31390;51.186;6.830;2023-04-15T13:45:39;3.50;;;3.20;;
45676;SDS011;31390;51.186;6.830;2023-04-15T13:48:06;3.10;;;2.90;;
45676;SDS011;31390;51.186;6.830;2023-04-15T13:50:32;3.28;;;2.78;;
45676;SDS011;31390;51.186;6.830;2023-04-15T13:52:59;3.25;;;2.92;;
45676;SDS011;31390;51.186;6.830;2023-04-15T13:55:25;5.35;;;4.95;;
45676;SDS011;31390;51.186;6.830;2023-04-15T13:57:54;6.18;;;5.57;;
45676;SDS011;31390;51.186;6.830;2023-04-15T14:00:20;5.85;;;5.35;;
45676;SDS011;31390;51.186;6.830;2023-04-15T14:02:47;5.63;;;4.82;;
45676;SDS011;31390;51.186;6.830;2023-04-15T14:05:14;4.55;;;4.15;;
45676;SDS011;31390;51.186;6.830;2023-04-15T14:07:40;7.07;;;4.38;;
45676;SDS011;31390;51.186;6.830;2023-04-15T14:10:07;7.57;;;4.55;;
45676;SDS011;31390;51.186;6.830;2023-04-15T14:12:33;8.35;;;4.30;;
45676;SDS011;31390;51.186;6.830;2023-04-15T14:15:00;6.13;;;3.92;;
45676;SDS011;31390;51.186;6.830;2023-04-15T14:17:27;4.80;;;3.85;;
45676;SDS011;31390;51.186;6.830;2023-04-15T14:19:54;10.60;;;4.50;;
45676;SDS011;31390;51.186;6.830;2023-04-15T14:22:20;5.70;;;4.50;;
45676;SDS011;31390;51.186;6.830;2023-04-15T14:24:47;6.20;;;5.60;;
45676;SDS011;31390;51.186;6.830;2023-04-15T14:27:14;7.63;;;6.93;;
45676;SDS011;31390;51.186;6.830;2023-04-15T14:29:41;7.35;;;6.68;;
45676;SDS011;31390;51.186;6.830;2023-04-15T14:32:08;7.22;;;6.00;;
45676;SDS011;31390;51.186;6.830;2023-04-15T14:34:38;5.78;;;4.95;;
45676;SDS011;31390;51.186;6.830;2023-04-15T14:37:05;5.35;;;4.85;;
45676;SDS011;31390;51.186;6.830;2023-04-15T14:39:31;5.60;;;5.10;;
45676;SDS011;31390;51.186;6.830;2023-04-15T14:41:58;6.75;;;6.15;;
45676;SDS011;31390;51.186;6.830;2023-04-15T14:44:25;6.85;;;6.15;;
45676;SDS011;31390;51.186;6.830;2023-04-15T14:46:51;5.45;;;4.88;;
45676;SDS011;31390;51.186;6.830;2023-04-15T14:49:18;6.45;;;4.32;;
45676;SDS011;31390;51.186;6.830;2023-04-15T14:51:44;5.05;;;3.95;;
45676;SDS011;31390;51.186;6.830;2023-04-15T14:54:11;5.10;;;4.68;;
45676;SDS011;31390;51.186;6.830;2023-04-15T14:56:38;7.43;;;6.68;;